sensor_id;sensor_type;location;lat;lon;timestamp;P1;durP1;ratioP1;P2;durP2;ratioP2
71856;SDS011;63344;46.980;28.882;2022-12-08T00:01:49;200.10;;;85.43;;
71856;SDS011;63344;46.980;28.882;2022-12-08T00:04:17;204.60;;;86.82;;
71856;SDS011;63344;46.980;28.882;2022-12-08T00:06:49;219.50;;;93.20;;
71856;SDS011;63344;46.980;28.882;2022-12-08T00:09:37;201.50;;;85.55;;
71856;SDS011;63344;46.980;28.882;2022-12-08T00:12:07;210.13;;;83.13;;
71856;SDS011;63344;46.980;28.882;2022-12-08T00:14:40;202.20;;;90.88;;
71856;SDS011;63344;46.980;28.882;2022-12-08T00:17:10;195.20;;;88.30;;
71856;SDS011;63344;46.980;28.882;2022-12-08T00:19:38;191.63;;;83.15;;
71856;SDS011;63344;46.980;28.882;2022-12-08T00:22:09;191.00;;;81.47;;
71856;SDS011;63344;46.980;28.882;2022-12-08T00:24:37;218.23;;;90.53;;
71856;SDS011;63344;46.980;28.882;2022-12-08T00:27:07;198.43;;;84.00;;
71856;SDS011;63344;46.980;28.882;2022-12-08T00:29:35;226.18;;;92.07;;
71856;SDS011;63344;46.980;28.882;2022-12-08T00:32:02;207.93;;;91.85;;
71856;SDS011;63344;46.980;28.882;2022-12-08T00:34:31;221.70;;;90.47;;
71856;SDS011;63344;46.980;28.882;2022-12-08T00:36:59;212.35;;;86.95;;
71856;SDS011;63344;46.980;28.882;2022-12-08T00:39:26;216.55;;;86.03;;
71856;SDS011;63344;46.980;28.882;2022-12-08T00:41:56;205.57;;;89.47;;
71856;SDS011;63344;46.980;28.882;2022-12-08T00:44:40;211.55;;;86.57;;
71856;SDS011;63344;46.980;28.882;2022-12-08T00:47:10;210.07;;;91.20;;
71856;SDS011;63344;46.980;28.882;2022-12-08T00:49:39;197.20;;;84.07;;
71856;SDS011;63344;46.980;28.882;2022-12-08T00:52:07;192.75;;;76.15;;
71856;SDS011;63344;46.980;28.882;2022-12-08T00:54:34;202.02;;;79.25;;
71856;SDS011;63344;46.980;28.882;2022-12-08T00:57:02;209.35;;;79.68;;
71856;SDS011;63344;46.980;28.882;2022-12-08T00:59:29;203.18;;;80.15;;
71856;SDS011;63344;46.980;28.882;2022-12-08T01:01:57;189.07;;;77.00;;
71856;SDS011;63344;46.980;28.882;2022-12-08T01:04:26;196.70;;;84.20;;
71856;SDS011;63344;46.980;28.882;2022-12-08T01:06:55;178.43;;;75.85;;
71856;SDS011;63344;46.980;28.882;2022-12-08T01:09:22;187.18;;;72.30;;
71856;SDS011;63344;46.980;28.882;2022-12-08T01:11:51;164.27;;;66.22;;
71856;SDS011;63344;46.980;28.882;2022-12-08T01:14:19;176.45;;;71.78;;
71856;SDS011;63344;46.980;28.882;2022-12-08T01:16:47;175.10;;;74.60;;
71856;SDS011;63344;46.980;28.882;2022-12-08T01:19:14;191.82;;;75.55;;
71856;SDS011;63344;46.980;28.882;2022-12-08T01:21:42;188.98;;;74.60;;
71856;SDS011;63344;46.980;28.882;2022-12-08T01:24:14;208.48;;;75.88;;
71856;SDS011;63344;46.980;28.882;2022-12-08T01:26:46;188.32;;;69.63;;
71856;SDS011;63344;46.980;28.882;2022-12-08T01:29:15;191.10;;;75.22;;
71856;SDS011;63344;46.980;28.882;2022-12-08T01:31:47;217.05;;;82.10;;
71856;SDS011;63344;46.980;28.882;2022-12-08T01:34:14;211.73;;;83.57;;
71856;SDS011;63344;46.980;28.882;2022-12-08T01:36:50;222.70;;;85.15;;
71856;SDS011;63344;46.980;28.882;2022-12-08T01:39:18;193.45;;;77.82;;
71856;SDS011;63344;46.980;28.882;2022-12-08T01:41:47;211.10;;;82.45;;
71856;SDS011;63344;46.980;28.882;2022-12-08T01:46:53;186.27;;;74.32;;
71856;SDS011;63344;46.980;28.882;2022-12-08T01:49:25;197.18;;;78.75;;
71856;SDS011;63344;46.980;28.882;2022-12-08T01:52:02;191.98;;;75.35;;
71856;SDS011;63344;46.980;28.882;2022-12-08T01:54:40;192.00;;;76.95;;
71856;SDS011;63344;46.980;28.882;2022-12-08T01:57:26;192.85;;;75.72;;
71856;SDS011;63344;46.980;28.882;2022-12-08T02:00:21;184.75;;;73.28;;
71856;SDS011;63344;46.980;28.882;2022-12-08T02:02:58;192.85;;;72.45;;
71856;SDS011;63344;46.980;28.882;2022-12-08T02:05:31;205.85;;;76.88;;
71856;SDS011;63344;46.980;28.882;2022-12-08T02:08:02;172.25;;;68.75;;
71856;SDS011;63344;46.980;28.882;2022-12-08T02:10:33;167.10;;;69.43;;
71856;SDS011;63344;46.980;28.882;2022-12-08T02:13:05;174.88;;;68.28;;
71856;SDS011;63344;46.980;28.882;2022-12-08T02:18:29;168.15;;;66.30;;
71856;SDS011;63344;46.980;28.882;2022-12-08T02:21:08;184.75;;;70.22;;
71856;SDS011;63344;46.980;28.882;2022-12-08T02:37:56;172.48;;;55.25;;
71856;SDS011;63344;46.980;28.882;2022-12-08T02:43:41;129.05;;;51.80;;
71856;SDS011;63344;46.980;28.882;2022-12-08T02:46:15;135.70;;;50.08;;
71856;SDS011;63344;46.980;28.882;2022-12-08T02:48:49;134.50;;;50.95;;
71856;SDS011;63344;46.980;28.882;2022-12-08T02:51:18;145.68;;;55.88;;
71856;SDS011;63344;46.980;28.882;2022-12-08T02:53:45;156.48;;;57.53;;
71856;SDS011;63344;46.980;28.882;2022-12-08T03:02:29;166.10;;;60.08;;
71856;SDS011;63344;46.980;28.882;2022-12-08T03:08:07;165.75;;;59.55;;
71856;SDS011;63344;46.980;28.882;2022-12-08T03:13:22;131.07;;;49.55;;
71856;SDS011;63344;46.980;28.882;2022-12-08T03:15:57;134.00;;;48.08;;
71856;SDS011;63344;46.980;28.882;2022-12-08T03:18:27;146.80;;;55.25;;
71856;SDS011;63344;46.980;28.882;2022-12-08T03:20:57;143.18;;;54.92;;
71856;SDS011;63344;46.980;28.882;2022-12-08T03:23:27;115.47;;;44.05;;
71856;SDS011;63344;46.980;28.882;2022-12-08T03:26:00;129.38;;;48.88;;
71856;SDS011;63344;46.980;28.882;2022-12-08T03:28:34;120.88;;;45.35;;
71856;SDS011;63344;46.980;28.882;2022-12-08T03:31:02;114.35;;;43.83;;
71856;SDS011;63344;46.980;28.882;2022-12-08T03:33:34;122.90;;;49.28;;
71856;SDS011;63344;46.980;28.882;2022-12-08T03:36:07;145.88;;;53.88;;
71856;SDS011;63344;46.980;28.882;2022-12-08T03:38:45;135.15;;;49.95;;
71856;SDS011;63344;46.980;28.882;2022-12-08T03:41:16;132.90;;;49.03;;
71856;SDS011;63344;46.980;28.882;2022-12-08T03:43:51;95.22;;;35.72;;
71856;SDS011;63344;46.980;28.882;2022-12-08T03:46:24;107.63;;;39.90;;
71856;SDS011;63344;46.980;28.882;2022-12-08T03:48:51;116.85;;;45.90;;
71856;SDS011;63344;46.980;28.882;2022-12-08T03:51:23;117.80;;;45.40;;
71856;SDS011;63344;46.980;28.882;2022-12-08T03:53:50;120.55;;;42.40;;
71856;SDS011;63344;46.980;28.882;2022-12-08T03:58:54;125.57;;;45.80;;
71856;SDS011;63344;46.980;28.882;2022-12-08T04:01:21;138.32;;;52.75;;
71856;SDS011;63344;46.980;28.882;2022-12-08T04:03:49;140.57;;;54.85;;
71856;SDS011;63344;46.980;28.882;2022-12-08T04:06:19;136.23;;;53.63;;
71856;SDS011;63344;46.980;28.882;2022-12-08T04:08:47;186.50;;;65.80;;
71856;SDS011;63344;46.980;28.882;2022-12-08T04:11:17;169.10;;;61.47;;
71856;SDS011;63344;46.980;28.882;2022-12-08T04:13:45;178.90;;;69.15;;
71856;SDS011;63344;46.980;28.882;2022-12-08T04:16:17;166.90;;;63.35;;
71856;SDS011;63344;46.980;28.882;2022-12-08T04:18:47;190.48;;;71.97;;
71856;SDS011;63344;46.980;28.882;2022-12-08T04:21:15;185.30;;;72.03;;
71856;SDS011;63344;46.980;28.882;2022-12-08T04:23:43;178.88;;;70.05;;
71856;SDS011;63344;46.980;28.882;2022-12-08T04:26:12;160.23;;;63.85;;
71856;SDS011;63344;46.980;28.882;2022-12-08T04:28:40;156.20;;;59.63;;
71856;SDS011;63344;46.980;28.882;2022-12-08T04:31:11;181.25;;;65.85;;
71856;SDS011;63344;46.980;28.882;2022-12-08T04:33:39;149.02;;;57.97;;
71856;SDS011;63344;46.980;28.882;2022-12-08T04:36:06;158.52;;;60.38;;
71856;SDS011;63344;46.980;28.882;2022-12-08T04:38:33;160.82;;;63.83;;
71856;SDS011;63344;46.980;28.882;2022-12-08T04:41:01;168.48;;;67.05;;
71856;SDS011;63344;46.980;28.882;2022-12-08T04:43:28;168.88;;;65.90;;
71856;SDS011;63344;46.980;28.882;2022-12-08T04:45:56;202.32;;;74.90;;
71856;SDS011;63344;46.980;28.882;2022-12-08T04:48:23;168.00;;;68.40;;
71856;SDS011;63344;46.980;28.882;2022-12-08T04:50:51;175.48;;;65.40;;
71856;SDS011;63344;46.980;28.882;2022-12-08T04:53:18;167.05;;;60.40;;
71856;SDS011;63344;46.980;28.882;2022-12-08T04:55:46;161.57;;;60.72;;
71856;SDS011;63344;46.980;28.882;2022-12-08T04:58:16;162.90;;;62.15;;
71856;SDS011;63344;46.980;28.882;2022-12-08T05:00:45;161.18;;;60.72;;
71856;SDS011;63344;46.980;28.882;2022-12-08T05:03:14;151.20;;;57.70;;
71856;SDS011;63344;46.980;28.882;2022-12-08T05:05:54;167.80;;;63.22;;
71856;SDS011;63344;46.980;28.882;2022-12-08T05:08:21;172.73;;;65.03;;
71856;SDS011;63344;46.980;28.882;2022-12-08T05:10:49;172.65;;;66.82;;
71856;SDS011;63344;46.980;28.882;2022-12-08T05:13:18;174.23;;;63.20;;
71856;SDS011;63344;46.980;28.882;2022-12-08T05:15:52;166.82;;;63.83;;
71856;SDS011;63344;46.980;28.882;2022-12-08T05:18:19;173.85;;;61.38;;
71856;SDS011;63344;46.980;28.882;2022-12-08T05:23:26;176.07;;;68.75;;
71856;SDS011;63344;46.980;28.882;2022-12-08T05:25:54;182.65;;;69.93;;
71856;SDS011;63344;46.980;28.882;2022-12-08T05:28:22;195.70;;;72.43;;
71856;SDS011;63344;46.980;28.882;2022-12-08T05:31:17;203.98;;;77.38;;
71856;SDS011;63344;46.980;28.882;2022-12-08T05:34:00;214.95;;;80.85;;
71856;SDS011;63344;46.980;28.882;2022-12-08T05:36:32;194.25;;;71.88;;
71856;SDS011;63344;46.980;28.882;2022-12-08T05:39:00;201.82;;;79.55;;
71856;SDS011;63344;46.980;28.882;2022-12-08T05:42:03;199.90;;;74.43;;
71856;SDS011;63344;46.980;28.882;2022-12-08T05:44:32;218.05;;;80.20;;
71856;SDS011;63344;46.980;28.882;2022-12-08T05:47:04;198.13;;;75.20;;
71856;SDS011;63344;46.980;28.882;2022-12-08T05:49:34;188.13;;;73.88;;
71856;SDS011;63344;46.980;28.882;2022-12-08T05:52:31;201.77;;;74.28;;
71856;SDS011;63344;46.980;28.882;2022-12-08T05:55:15;190.60;;;73.32;;
71856;SDS011;63344;46.980;28.882;2022-12-08T05:57:56;189.07;;;69.45;;
71856;SDS011;63344;46.980;28.882;2022-12-08T06:00:39;191.52;;;76.63;;
71856;SDS011;63344;46.980;28.882;2022-12-08T06:03:07;205.48;;;77.25;;
71856;SDS011;63344;46.980;28.882;2022-12-08T06:05:37;200.50;;;75.10;;
71856;SDS011;63344;46.980;28.882;2022-12-08T06:08:06;186.32;;;73.38;;
71856;SDS011;63344;46.980;28.882;2022-12-08T06:10:37;189.60;;;73.07;;
71856;SDS011;63344;46.980;28.882;2022-12-08T06:13:22;186.55;;;67.75;;
71856;SDS011;63344;46.980;28.882;2022-12-08T06:16:05;183.48;;;72.95;;
71856;SDS011;63344;46.980;28.882;2022-12-08T06:18:46;195.27;;;76.00;;
71856;SDS011;63344;46.980;28.882;2022-12-08T06:21:28;180.88;;;68.93;;
71856;SDS011;63344;46.980;28.882;2022-12-08T06:23:55;186.68;;;70.13;;
71856;SDS011;63344;46.980;28.882;2022-12-08T06:26:39;189.48;;;70.68;;
71856;SDS011;63344;46.980;28.882;2022-12-08T06:29:18;201.95;;;74.30;;
71856;SDS011;63344;46.980;28.882;2022-12-08T06:31:46;178.05;;;68.82;;
71856;SDS011;63344;46.980;28.882;2022-12-08T06:34:25;194.77;;;71.50;;
71856;SDS011;63344;46.980;28.882;2022-12-08T06:39:35;203.15;;;68.78;;
71856;SDS011;63344;46.980;28.882;2022-12-08T06:42:03;177.55;;;68.60;;
71856;SDS011;63344;46.980;28.882;2022-12-08T06:45:04;179.07;;;67.60;;
71856;SDS011;63344;46.980;28.882;2022-12-08T06:47:45;168.88;;;60.72;;
71856;SDS011;63344;46.980;28.882;2022-12-08T06:50:29;174.23;;;69.95;;
71856;SDS011;63344;46.980;28.882;2022-12-08T06:53:16;182.77;;;67.80;;
71856;SDS011;63344;46.980;28.882;2022-12-08T06:55:43;169.63;;;62.63;;
71856;SDS011;63344;46.980;28.882;2022-12-08T06:58:40;186.52;;;64.10;;
71856;SDS011;63344;46.980;28.882;2022-12-08T07:01:24;188.25;;;65.13;;
71856;SDS011;63344;46.980;28.882;2022-12-08T07:03:51;174.20;;;60.45;;
71856;SDS011;63344;46.980;28.882;2022-12-08T07:06:37;166.52;;;58.95;;
71856;SDS011;63344;46.980;28.882;2022-12-08T07:09:19;183.07;;;58.55;;
71856;SDS011;63344;46.980;28.882;2022-12-08T07:11:51;165.85;;;57.15;;
71856;SDS011;63344;46.980;28.882;2022-12-08T07:14:20;161.95;;;56.08;;
71856;SDS011;63344;46.980;28.882;2022-12-08T07:16:52;184.43;;;65.50;;
71856;SDS011;63344;46.980;28.882;2022-12-08T07:19:20;191.73;;;65.75;;
71856;SDS011;63344;46.980;28.882;2022-12-08T07:21:50;208.82;;;75.72;;
71856;SDS011;63344;46.980;28.882;2022-12-08T07:24:18;240.23;;;82.50;;
71856;SDS011;63344;46.980;28.882;2022-12-08T07:27:14;255.82;;;89.75;;
71856;SDS011;63344;46.980;28.882;2022-12-08T07:29:48;236.20;;;83.18;;
71856;SDS011;63344;46.980;28.882;2022-12-08T07:32:31;273.85;;;97.85;;
71856;SDS011;63344;46.980;28.882;2022-12-08T07:35:16;262.60;;;95.45;;
71856;SDS011;63344;46.980;28.882;2022-12-08T07:37:43;308.08;;;109.88;;
71856;SDS011;63344;46.980;28.882;2022-12-08T07:40:13;322.23;;;109.13;;
71856;SDS011;63344;46.980;28.882;2022-12-08T07:42:55;442.50;;;145.15;;
71856;SDS011;63344;46.980;28.882;2022-12-08T07:45:24;601.17;;;179.00;;
71856;SDS011;63344;46.980;28.882;2022-12-08T07:47:57;446.52;;;157.32;;
71856;SDS011;63344;46.980;28.882;2022-12-08T07:50:25;478.23;;;156.75;;
71856;SDS011;63344;46.980;28.882;2022-12-08T07:53:09;425.73;;;134.57;;
71856;SDS011;63344;46.980;28.882;2022-12-08T07:56:06;375.25;;;120.07;;
71856;SDS011;63344;46.980;28.882;2022-12-08T07:58:50;472.50;;;138.90;;
71856;SDS011;63344;46.980;28.882;2022-12-08T08:01:26;457.52;;;137.68;;
71856;SDS011;63344;46.980;28.882;2022-12-08T08:04:13;450.30;;;129.70;;
71856;SDS011;63344;46.980;28.882;2022-12-08T08:06:41;471.65;;;141.35;;
71856;SDS011;63344;46.980;28.882;2022-12-08T08:09:22;363.05;;;113.22;;
71856;SDS011;63344;46.980;28.882;2022-12-08T08:12:05;343.55;;;99.78;;
71856;SDS011;63344;46.980;28.882;2022-12-08T08:14:52;339.92;;;108.10;;
71856;SDS011;63344;46.980;28.882;2022-12-08T08:17:34;285.67;;;91.22;;
71856;SDS011;63344;46.980;28.882;2022-12-08T08:20:17;316.30;;;96.25;;
71856;SDS011;63344;46.980;28.882;2022-12-08T08:22:48;291.00;;;87.72;;
71856;SDS011;63344;46.980;28.882;2022-12-08T08:25:32;333.75;;;91.35;;
71856;SDS011;63344;46.980;28.882;2022-12-08T08:28:30;267.38;;;87.22;;
71856;SDS011;63344;46.980;28.882;2022-12-08T08:31:24;282.42;;;87.55;;
71856;SDS011;63344;46.980;28.882;2022-12-08T08:34:09;251.02;;;80.60;;
71856;SDS011;63344;46.980;28.882;2022-12-08T08:36:39;285.55;;;87.75;;
71856;SDS011;63344;46.980;28.882;2022-12-08T08:39:09;257.80;;;86.40;;
71856;SDS011;63344;46.980;28.882;2022-12-08T08:41:38;257.58;;;82.15;;
71856;SDS011;63344;46.980;28.882;2022-12-08T08:44:11;234.95;;;77.18;;
71856;SDS011;63344;46.980;28.882;2022-12-08T08:46:53;257.13;;;76.57;;
71856;SDS011;63344;46.980;28.882;2022-12-08T08:49:21;234.07;;;75.10;;
71856;SDS011;63344;46.980;28.882;2022-12-08T08:57:12;172.23;;;57.05;;
71856;SDS011;63344;46.980;28.882;2022-12-08T08:59:53;181.88;;;58.80;;
71856;SDS011;63344;46.980;28.882;2022-12-08T09:02:36;205.20;;;61.42;;
71856;SDS011;63344;46.980;28.882;2022-12-08T09:05:22;179.93;;;62.28;;
71856;SDS011;63344;46.980;28.882;2022-12-08T09:08:07;174.55;;;58.45;;
71856;SDS011;63344;46.980;28.882;2022-12-08T09:10:49;175.80;;;61.03;;
71856;SDS011;63344;46.980;28.882;2022-12-08T09:13:30;203.45;;;66.97;;
71856;SDS011;63344;46.980;28.882;2022-12-08T09:15:59;248.07;;;79.40;;
71856;SDS011;63344;46.980;28.882;2022-12-08T09:18:41;215.43;;;67.85;;
71856;SDS011;63344;46.980;28.882;2022-12-08T09:21:23;228.70;;;72.68;;
71856;SDS011;63344;46.980;28.882;2022-12-08T09:24:05;195.45;;;64.13;;
71856;SDS011;63344;46.980;28.882;2022-12-08T09:26:34;181.73;;;58.78;;
71856;SDS011;63344;46.980;28.882;2022-12-08T09:29:15;189.40;;;61.53;;
71856;SDS011;63344;46.980;28.882;2022-12-08T09:31:43;179.30;;;57.47;;
71856;SDS011;63344;46.980;28.882;2022-12-08T09:34:26;162.55;;;52.70;;
71856;SDS011;63344;46.980;28.882;2022-12-08T09:36:54;134.73;;;45.42;;
71856;SDS011;63344;46.980;28.882;2022-12-08T09:39:26;142.52;;;48.13;;
71856;SDS011;63344;46.980;28.882;2022-12-08T09:41:58;133.13;;;41.78;;
71856;SDS011;63344;46.980;28.882;2022-12-08T09:45:08;143.52;;;46.97;;
71856;SDS011;63344;46.980;28.882;2022-12-08T09:47:47;129.98;;;45.60;;
71856;SDS011;63344;46.980;28.882;2022-12-08T09:50:39;145.07;;;44.97;;
71856;SDS011;63344;46.980;28.882;2022-12-08T09:53:45;140.70;;;45.42;;
71856;SDS011;63344;46.980;28.882;2022-12-08T09:56:21;117.63;;;40.13;;
71856;SDS011;63344;46.980;28.882;2022-12-08T10:01:50;133.23;;;40.05;;
71856;SDS011;63344;46.980;28.882;2022-12-08T10:04:24;129.52;;;42.85;;
71856;SDS011;63344;46.980;28.882;2022-12-08T10:10:25;114.40;;;37.78;;
71856;SDS011;63344;46.980;28.882;2022-12-08T10:13:19;95.60;;;32.83;;
71856;SDS011;63344;46.980;28.882;2022-12-08T10:18:56;118.72;;;37.75;;
71856;SDS011;63344;46.980;28.882;2022-12-08T10:21:49;73.43;;;23.55;;
71856;SDS011;63344;46.980;28.882;2022-12-08T10:24:40;94.40;;;30.48;;
71856;SDS011;63344;46.980;28.882;2022-12-08T10:27:18;91.80;;;29.85;;
71856;SDS011;63344;46.980;28.882;2022-12-08T10:29:59;32.60;;;15.68;;
71856;SDS011;63344;46.980;28.882;2022-12-08T10:32:32;91.45;;;31.88;;
71856;SDS011;63344;46.980;28.882;2022-12-08T10:37:55;79.38;;;28.80;;
71856;SDS011;63344;46.980;28.882;2022-12-08T10:40:56;91.03;;;31.52;;
71856;SDS011;63344;46.980;28.882;2022-12-08T10:44:00;66.00;;;26.83;;
71856;SDS011;63344;46.980;28.882;2022-12-08T10:49:28;68.57;;;22.48;;
71856;SDS011;63344;46.980;28.882;2022-12-08T10:52:23;76.63;;;25.98;;
71856;SDS011;63344;46.980;28.882;2022-12-08T10:54:55;38.40;;;16.00;;
71856;SDS011;63344;46.980;28.882;2022-12-08T10:57:38;77.82;;;28.85;;
71856;SDS011;63344;46.980;28.882;2022-12-08T11:00:12;96.22;;;31.73;;
71856;SDS011;63344;46.980;28.882;2022-12-08T11:03:03;60.83;;;21.90;;
71856;SDS011;63344;46.980;28.882;2022-12-08T11:05:35;72.72;;;27.20;;
71856;SDS011;63344;46.980;28.882;2022-12-08T11:08:13;64.90;;;26.40;;
71856;SDS011;63344;46.980;28.882;2022-12-08T11:10:56;67.95;;;24.75;;
71856;SDS011;63344;46.980;28.882;2022-12-08T11:13:40;74.25;;;27.65;;
71856;SDS011;63344;46.980;28.882;2022-12-08T11:16:22;86.35;;;31.40;;
71856;SDS011;63344;46.980;28.882;2022-12-08T11:19:11;77.95;;;28.95;;
71856;SDS011;63344;46.980;28.882;2022-12-08T11:21:54;69.07;;;25.92;;
71856;SDS011;63344;46.980;28.882;2022-12-08T11:29:34;77.10;;;30.02;;
71856;SDS011;63344;46.980;28.882;2022-12-08T11:32:11;66.30;;;25.50;;
71856;SDS011;63344;46.980;28.882;2022-12-08T11:34:58;69.78;;;26.65;;
71856;SDS011;63344;46.980;28.882;2022-12-08T11:37:36;96.03;;;35.17;;
71856;SDS011;63344;46.980;28.882;2022-12-08T11:40:29;93.60;;;36.13;;
71856;SDS011;63344;46.980;28.882;2022-12-08T11:46:23;84.15;;;32.10;;
71856;SDS011;63344;46.980;28.882;2022-12-08T11:49:10;81.53;;;30.85;;
71856;SDS011;63344;46.980;28.882;2022-12-08T11:52:16;73.07;;;28.58;;
71856;SDS011;63344;46.980;28.882;2022-12-08T11:55:28;79.30;;;30.98;;
71856;SDS011;63344;46.980;28.882;2022-12-08T11:58:30;74.70;;;28.55;;
71856;SDS011;63344;46.980;28.882;2022-12-08T12:01:17;70.43;;;28.73;;
71856;SDS011;63344;46.980;28.882;2022-12-08T12:04:09;83.75;;;29.95;;
71856;SDS011;63344;46.980;28.882;2022-12-08T12:07:26;74.35;;;29.30;;
71856;SDS011;63344;46.980;28.882;2022-12-08T12:20:36;89.45;;;31.33;;
71856;SDS011;63344;46.980;28.882;2022-12-08T12:26:33;88.10;;;31.58;;
71856;SDS011;63344;46.980;28.882;2022-12-08T12:29:04;64.82;;;27.80;;
71856;SDS011;63344;46.980;28.882;2022-12-08T12:31:40;65.97;;;25.63;;
71856;SDS011;63344;46.980;28.882;2022-12-08T12:34:17;72.93;;;27.30;;
71856;SDS011;63344;46.980;28.882;2022-12-08T12:45:32;90.25;;;31.00;;
71856;SDS011;63344;46.980;28.882;2022-12-08T12:48:20;77.03;;;28.42;;
71856;SDS011;63344;46.980;28.882;2022-12-08T12:51:22;66.05;;;24.98;;
71856;SDS011;63344;46.980;28.882;2022-12-08T12:54:26;69.13;;;25.17;;
71856;SDS011;63344;46.980;28.882;2022-12-08T13:08:01;77.18;;;26.00;;
71856;SDS011;63344;46.980;28.882;2022-12-08T13:13:37;72.28;;;25.27;;
71856;SDS011;63344;46.980;28.882;2022-12-08T13:16:26;67.57;;;25.65;;
71856;SDS011;63344;46.980;28.882;2022-12-08T13:19:03;79.00;;;27.65;;
71856;SDS011;63344;46.980;28.882;2022-12-08T13:28:23;69.15;;;24.67;;
71856;SDS011;63344;46.980;28.882;2022-12-08T13:33:38;63.88;;;23.15;;
71856;SDS011;63344;46.980;28.882;2022-12-08T13:36:24;57.05;;;21.92;;
71856;SDS011;63344;46.980;28.882;2022-12-08T13:45:18;50.00;;;19.35;;
71856;SDS011;63344;46.980;28.882;2022-12-08T13:51:20;56.08;;;23.25;;
71856;SDS011;63344;46.980;28.882;2022-12-08T13:54:05;36.20;;;16.33;;
71856;SDS011;63344;46.980;28.882;2022-12-08T13:56:58;44.35;;;17.33;;
71856;SDS011;63344;46.980;28.882;2022-12-08T13:59:41;46.38;;;19.27;;
71856;SDS011;63344;46.980;28.882;2022-12-08T14:02:16;45.17;;;16.98;;
71856;SDS011;63344;46.980;28.882;2022-12-08T14:05:19;47.83;;;17.40;;
71856;SDS011;63344;46.980;28.882;2022-12-08T14:08:30;41.38;;;16.02;;
71856;SDS011;63344;46.980;28.882;2022-12-08T14:11:29;48.33;;;18.88;;
71856;SDS011;63344;46.980;28.882;2022-12-08T14:14:28;37.00;;;14.68;;
71856;SDS011;63344;46.980;28.882;2022-12-08T14:17:20;46.22;;;18.60;;
71856;SDS011;63344;46.980;28.882;2022-12-08T14:22:45;49.30;;;19.98;;
71856;SDS011;63344;46.980;28.882;2022-12-08T14:25:13;43.67;;;16.85;;
71856;SDS011;63344;46.980;28.882;2022-12-08T14:27:43;39.67;;;16.25;;
71856;SDS011;63344;46.980;28.882;2022-12-08T14:30:27;42.53;;;18.50;;
71856;SDS011;63344;46.980;28.882;2022-12-08T14:33:01;47.33;;;18.67;;
71856;SDS011;63344;46.980;28.882;2022-12-08T14:35:52;46.33;;;18.23;;
71856;SDS011;63344;46.980;28.882;2022-12-08T14:38:23;49.03;;;19.98;;
71856;SDS011;63344;46.980;28.882;2022-12-08T14:43:41;46.47;;;18.67;;
71856;SDS011;63344;46.980;28.882;2022-12-08T14:46:22;49.22;;;19.48;;
71856;SDS011;63344;46.980;28.882;2022-12-08T14:49:03;51.75;;;19.17;;
71856;SDS011;63344;46.980;28.882;2022-12-08T14:51:32;54.72;;;19.70;;
71856;SDS011;63344;46.980;28.882;2022-12-08T14:54:13;49.28;;;19.23;;
71856;SDS011;63344;46.980;28.882;2022-12-08T14:56:54;60.38;;;23.58;;
71856;SDS011;63344;46.980;28.882;2022-12-08T14:59:37;38.45;;;14.95;;
71856;SDS011;63344;46.980;28.882;2022-12-08T15:02:25;49.35;;;21.30;;
71856;SDS011;63344;46.980;28.882;2022-12-08T15:05:16;50.00;;;19.00;;
71856;SDS011;63344;46.980;28.882;2022-12-08T15:07:50;43.58;;;17.85;;
71856;SDS011;63344;46.980;28.882;2022-12-08T15:10:33;62.25;;;23.00;;
71856;SDS011;63344;46.980;28.882;2022-12-08T15:15:55;54.30;;;20.50;;
71856;SDS011;63344;46.980;28.882;2022-12-08T15:18:36;58.20;;;23.65;;
71856;SDS011;63344;46.980;28.882;2022-12-08T15:21:06;49.38;;;20.17;;
71856;SDS011;63344;46.980;28.882;2022-12-08T15:23:40;46.40;;;18.35;;
71856;SDS011;63344;46.980;28.882;2022-12-08T15:26:17;63.28;;;21.42;;
71856;SDS011;63344;46.980;28.882;2022-12-08T15:28:49;51.95;;;19.15;;
71856;SDS011;63344;46.980;28.882;2022-12-08T15:31:17;60.45;;;23.38;;
71856;SDS011;63344;46.980;28.882;2022-12-08T15:33:44;48.58;;;19.65;;
71856;SDS011;63344;46.980;28.882;2022-12-08T15:36:11;57.47;;;22.42;;
71856;SDS011;63344;46.980;28.882;2022-12-08T15:38:39;53.03;;;22.10;;
71856;SDS011;63344;46.980;28.882;2022-12-08T15:41:06;50.78;;;21.42;;
71856;SDS011;63344;46.980;28.882;2022-12-08T15:43:40;52.55;;;21.30;;
71856;SDS011;63344;46.980;28.882;2022-12-08T15:46:07;54.05;;;22.42;;
71856;SDS011;63344;46.980;28.882;2022-12-08T15:48:35;59.33;;;23.08;;
71856;SDS011;63344;46.980;28.882;2022-12-08T15:51:03;55.28;;;21.30;;
71856;SDS011;63344;46.980;28.882;2022-12-08T15:53:31;49.90;;;20.55;;
71856;SDS011;63344;46.980;28.882;2022-12-08T15:55:59;51.45;;;20.27;;
71856;SDS011;63344;46.980;28.882;2022-12-08T15:58:51;55.67;;;21.42;;
71856;SDS011;63344;46.980;28.882;2022-12-08T16:01:21;56.75;;;22.88;;
71856;SDS011;63344;46.980;28.882;2022-12-08T16:03:49;51.88;;;21.48;;
71856;SDS011;63344;46.980;28.882;2022-12-08T16:06:38;50.03;;;20.77;;
71856;SDS011;63344;46.980;28.882;2022-12-08T16:09:28;58.83;;;22.75;;
71856;SDS011;63344;46.980;28.882;2022-12-08T16:11:59;53.25;;;21.92;;
71856;SDS011;63344;46.980;28.882;2022-12-08T16:14:45;55.90;;;21.30;;
71856;SDS011;63344;46.980;28.882;2022-12-08T16:17:32;51.38;;;20.88;;
71856;SDS011;63344;46.980;28.882;2022-12-08T16:20:00;51.05;;;19.48;;
71856;SDS011;63344;46.980;28.882;2022-12-08T16:22:29;42.90;;;17.00;;
71856;SDS011;63344;46.980;28.882;2022-12-08T16:25:17;39.08;;;16.70;;
71856;SDS011;63344;46.980;28.882;2022-12-08T16:27:48;30.40;;;11.45;;
71856;SDS011;63344;46.980;28.882;2022-12-08T16:30:34;24.90;;;10.82;;
71856;SDS011;63344;46.980;28.882;2022-12-08T16:33:01;51.92;;;15.32;;
71856;SDS011;63344;46.980;28.882;2022-12-08T16:35:29;40.97;;;14.27;;
71856;SDS011;63344;46.980;28.882;2022-12-08T16:37:56;39.63;;;14.07;;
71856;SDS011;63344;46.980;28.882;2022-12-08T16:40:24;67.57;;;22.35;;
71856;SDS011;63344;46.980;28.882;2022-12-08T16:42:53;193.27;;;31.35;;
71856;SDS011;63344;46.980;28.882;2022-12-08T16:45:22;67.72;;;21.80;;
71856;SDS011;63344;46.980;28.882;2022-12-08T16:48:47;81.68;;;27.30;;
71856;SDS011;63344;46.980;28.882;2022-12-08T16:51:16;73.85;;;23.48;;
71856;SDS011;63344;46.980;28.882;2022-12-08T16:53:53;75.40;;;22.40;;
71856;SDS011;63344;46.980;28.882;2022-12-08T16:56:21;85.65;;;25.40;;
71856;SDS011;63344;46.980;28.882;2022-12-08T16:58:57;99.15;;;26.80;;
71856;SDS011;63344;46.980;28.882;2022-12-08T17:01:25;94.22;;;31.30;;
71856;SDS011;63344;46.980;28.882;2022-12-08T17:04:13;44.65;;;15.95;;
71856;SDS011;63344;46.980;28.882;2022-12-08T17:06:57;63.75;;;17.38;;
71856;SDS011;63344;46.980;28.882;2022-12-08T17:09:25;60.45;;;19.08;;
71856;SDS011;63344;46.980;28.882;2022-12-08T17:11:55;61.78;;;18.65;;